sensor_id;sensor_type;location;lat;lon;timestamp;P1;durP1;ratioP1;P2;durP2;ratioP2
53411;SDS011;39307;52.870;13.660;2023-03-01T00:02:21;11.50;;;7.22;;
53411;SDS011;39307;52.870;13.660;2023-03-01T00:04:47;12.30;;;7.50;;
53411;SDS011;39307;52.870;13.660;2023-03-01T00:07:13;11.43;;;7.70;;
53411;SDS011;39307;52.870;13.660;2023-03-01T00:09:39;12.50;;;7.55;;
53411;SDS011;39307;52.870;13.660;2023-03-01T00:12:06;12.57;;;7.50;;
53411;SDS011;39307;52.870;13.660;2023-03-01T00:14:32;13.30;;;7.70;;
53411;SDS011;39307;52.870;13.660;2023-03-01T00:16:58;12.38;;;7.47;;
53411;SDS011;39307;52.870;13.660;2023-03-01T00:19:24;13.50;;;7.77;;
53411;SDS011;39307;52.870;13.660;2023-03-01T00:21:51;12.07;;;7.95;;
53411;SDS011;39307;52.870;13.660;2023-03-01T00:24:17;12.60;;;8.10;;
53411;SDS011;39307;52.870;13.660;2023-03-01T00:26:43;13.20;;;8.13;;
53411;SDS011;39307;52.870;13.660;2023-03-01T00:29:09;17.33;;;8.57;;
53411;SDS011;39307;52.870;13.660;2023-03-01T00:31:36;13.35;;;7.78;;
53411;SDS011;39307;52.870;13.660;2023-03-01T00:34:03;13.07;;;7.72;;
53411;SDS011;39307;52.870;13.660;2023-03-01T00:36:32;12.52;;;8.10;;
53411;SDS011;39307;52.870;13.660;2023-03-01T00:39:00;12.40;;;7.65;;
53411;SDS011;39307;52.870;13.660;2023-03-01T00:41:27;12.00;;;7.47;;
53411;SDS011;39307;52.870;13.660;2023-03-01T00:43:53;12.17;;;7.07;;
53411;SDS011;39307;52.870;13.660;2023-03-01T00:46:21;11.40;;;7.05;;
53411;SDS011;39307;52.870;13.660;2023-03-01T00:48:49;12.90;;;7.18;;
53411;SDS011;39307;52.870;13.660;2023-03-01T00:51:18;14.93;;;7.90;;
53411;SDS011;39307;52.870;13.660;2023-03-01T00:53:47;12.57;;;7.80;;
53411;SDS011;39307;52.870;13.660;2023-03-01T00:56:17;12.40;;;7.47;;
53411;SDS011;39307;52.870;13.660;2023-03-01T00:58:44;11.48;;;7.30;;
53411;SDS011;39307;52.870;13.660;2023-03-01T01:01:20;10.32;;;6.82;;
53411;SDS011;39307;52.870;13.660;2023-03-01T01:03:52;9.30;;;6.25;;
53411;SDS011;39307;52.870;13.660;2023-03-01T01:06:21;11.50;;;6.30;;
53411;SDS011;39307;52.870;13.660;2023-03-01T01:08:55;11.38;;;6.03;;
53411;SDS011;39307;52.870;13.660;2023-03-01T01:11:22;8.77;;;5.37;;
53411;SDS011;39307;52.870;13.660;2023-03-01T01:13:50;8.80;;;5.47;;
53411;SDS011;39307;52.870;13.660;2023-03-01T01:16:17;11.82;;;5.45;;
53411;SDS011;39307;52.870;13.660;2023-03-01T01:18:44;9.05;;;5.25;;
53411;SDS011;39307;52.870;13.660;2023-03-01T01:21:12;8.68;;;5.13;;
53411;SDS011;39307;52.870;13.660;2023-03-01T01:23:42;10.97;;;5.70;;
53411;SDS011;39307;52.870;13.660;2023-03-01T01:26:10;10.53;;;5.30;;
53411;SDS011;39307;52.870;13.660;2023-03-01T01:28:38;8.98;;;5.32;;
53411;SDS011;39307;52.870;13.660;2023-03-01T01:31:04;8.90;;;5.30;;
53411;SDS011;39307;52.870;13.660;2023-03-01T01:33:31;9.63;;;5.53;;
53411;SDS011;39307;52.870;13.660;2023-03-01T01:35:58;8.88;;;5.15;;
53411;SDS011;39307;52.870;13.660;2023-03-01T01:38:24;9.30;;;5.45;;
53411;SDS011;39307;52.870;13.660;2023-03-01T01:40:51;9.93;;;5.60;;
53411;SDS011;39307;52.870;13.660;2023-03-01T01:43:34;8.40;;;5.20;;
53411;SDS011;39307;52.870;13.660;2023-03-01T01:48:55;8.15;;;5.03;;
53411;SDS011;39307;52.870;13.660;2023-03-01T01:51:28;7.75;;;5.18;;
53411;SDS011;39307;52.870;13.660;2023-03-01T01:53:59;9.05;;;5.10;;
53411;SDS011;39307;52.870;13.660;2023-03-01T01:56:27;9.00;;;5.35;;
53411;SDS011;39307;52.870;13.660;2023-03-01T01:58:54;10.00;;;5.55;;
53411;SDS011;39307;52.870;13.660;2023-03-01T02:01:21;8.02;;;4.90;;
53411;SDS011;39307;52.870;13.660;2023-03-01T02:03:47;8.77;;;5.45;;
53411;SDS011;39307;52.870;13.660;2023-03-01T02:06:19;8.33;;;4.90;;
53411;SDS011;39307;52.870;13.660;2023-03-01T02:09:00;10.15;;;5.43;;
53411;SDS011;39307;52.870;13.660;2023-03-01T02:11:33;9.70;;;5.13;;
53411;SDS011;39307;52.870;13.660;2023-03-01T02:13:59;8.13;;;4.75;;
53411;SDS011;39307;52.870;13.660;2023-03-01T02:16:26;8.88;;;5.15;;
53411;SDS011;39307;52.870;13.660;2023-03-01T02:18:52;9.32;;;5.38;;
53411;SDS011;39307;52.870;13.660;2023-03-01T02:21:28;9.10;;;4.88;;
53411;SDS011;39307;52.870;13.660;2023-03-01T02:24:38;9.32;;;5.13;;
53411;SDS011;39307;52.870;13.660;2023-03-01T02:27:16;9.70;;;5.40;;
53411;SDS011;39307;52.870;13.660;2023-03-01T02:29:44;9.40;;;4.73;;
53411;SDS011;39307;52.870;13.660;2023-03-01T02:32:10;8.25;;;4.90;;
53411;SDS011;39307;52.870;13.660;2023-03-01T02:34:37;8.82;;;4.82;;
53411;SDS011;39307;52.870;13.660;2023-03-01T02:37:09;9.52;;;5.15;;
53411;SDS011;39307;52.870;13.660;2023-03-01T02:39:48;8.30;;;4.83;;
53411;SDS011;39307;52.870;13.660;2023-03-01T02:42:22;8.00;;;4.67;;
53411;SDS011;39307;52.870;13.660;2023-03-01T02:44:53;7.93;;;4.28;;
53411;SDS011;39307;52.870;13.660;2023-03-01T02:47:19;8.05;;;4.70;;
53411;SDS011;39307;52.870;13.660;2023-03-01T02:49:45;8.43;;;4.80;;
53411;SDS011;39307;52.870;13.660;2023-03-01T02:52:27;9.35;;;4.72;;
53411;SDS011;39307;52.870;13.660;2023-03-01T02:55:13;9.00;;;4.97;;
53411;SDS011;39307;52.870;13.660;2023-03-01T02:57:42;8.10;;;4.65;;
53411;SDS011;39307;52.870;13.660;2023-03-01T03:00:13;9.32;;;5.18;;
53411;SDS011;39307;52.870;13.660;2023-03-01T03:02:43;9.82;;;5.43;;
53411;SDS011;39307;52.870;13.660;2023-03-01T03:05:14;8.60;;;4.97;;
53411;SDS011;39307;52.870;13.660;2023-03-01T03:07:44;8.98;;;5.20;;
53411;SDS011;39307;52.870;13.660;2023-03-01T03:10:12;8.60;;;5.10;;
53411;SDS011;39307;52.870;13.660;2023-03-01T03:12:43;9.27;;;4.85;;
53411;SDS011;39307;52.870;13.660;2023-03-01T03:15:10;8.25;;;4.53;;
53411;SDS011;39307;52.870;13.660;2023-03-01T03:17:37;8.53;;;4.73;;
53411;SDS011;39307;52.870;13.660;2023-03-01T03:20:04;8.98;;;4.90;;
53411;SDS011;39307;52.870;13.660;2023-03-01T03:22:32;9.35;;;5.20;;
53411;SDS011;39307;52.870;13.660;2023-03-01T03:24:58;8.00;;;4.85;;
53411;SDS011;39307;52.870;13.660;2023-03-01T03:27:24;8.40;;;5.05;;
53411;SDS011;39307;52.870;13.660;2023-03-01T03:29:51;8.23;;;4.80;;
53411;SDS011;39307;52.870;13.660;2023-03-01T03:32:17;8.13;;;4.90;;
53411;SDS011;39307;52.870;13.660;2023-03-01T03:34:43;9.77;;;5.15;;
53411;SDS011;39307;52.870;13.660;2023-03-01T03:37:10;10.20;;;5.10;;
53411;SDS011;39307;52.870;13.660;2023-03-01T03:39:36;8.55;;;5.20;;
53411;SDS011;39307;52.870;13.660;2023-03-01T03:42:02;9.43;;;5.60;;
53411;SDS011;39307;52.870;13.660;2023-03-01T03:44:28;8.50;;;5.20;;
53411;SDS011;39307;52.870;13.660;2023-03-01T03:46:54;8.82;;;5.05;;
53411;SDS011;39307;52.870;13.660;2023-03-01T03:49:20;9.30;;;5.20;;
53411;SDS011;39307;52.870;13.660;2023-03-01T03:51:46;9.25;;;4.85;;
53411;SDS011;39307;52.870;13.660;2023-03-01T03:54:13;9.32;;;4.93;;
53411;SDS011;39307;52.870;13.660;2023-03-01T03:56:39;8.90;;;4.72;;
53411;SDS011;39307;52.870;13.660;2023-03-01T03:59:05;8.40;;;5.00;;
53411;SDS011;39307;52.870;13.660;2023-03-01T04:01:31;8.35;;;4.68;;
53411;SDS011;39307;52.870;13.660;2023-03-01T04:03:57;8.68;;;4.78;;
53411;SDS011;39307;52.870;13.660;2023-03-01T04:06:23;8.27;;;4.93;;
53411;SDS011;39307;52.870;13.660;2023-03-01T04:08:50;11.60;;;5.38;;
53411;SDS011;39307;52.870;13.660;2023-03-01T04:11:16;9.27;;;5.28;;
53411;SDS011;39307;52.870;13.660;2023-03-01T04:13:42;8.50;;;4.97;;
53411;SDS011;39307;52.870;13.660;2023-03-01T04:16:08;8.73;;;4.88;;
53411;SDS011;39307;52.870;13.660;2023-03-01T04:18:34;8.48;;;5.03;;
53411;SDS011;39307;52.870;13.660;2023-03-01T04:21:00;10.73;;;5.30;;
53411;SDS011;39307;52.870;13.660;2023-03-01T04:23:26;10.52;;;5.35;;
53411;SDS011;39307;52.870;13.660;2023-03-01T04:25:54;9.73;;;5.43;;
53411;SDS011;39307;52.870;13.660;2023-03-01T04:31:14;8.50;;;5.05;;
53411;SDS011;39307;52.870;13.660;2023-03-01T04:33:42;9.05;;;5.03;;
53411;SDS011;39307;52.870;13.660;2023-03-01T04:36:20;8.55;;;4.85;;
53411;SDS011;39307;52.870;13.660;2023-03-01T04:38:49;8.98;;;5.07;;
53411;SDS011;39307;52.870;13.660;2023-03-01T04:41:16;8.70;;;5.00;;
53411;SDS011;39307;52.870;13.660;2023-03-01T04:43:43;8.50;;;5.00;;
53411;SDS011;39307;52.870;13.660;2023-03-01T04:46:14;14.10;;;5.38;;
53411;SDS011;39307;52.870;13.660;2023-03-01T04:48:44;9.15;;;5.57;;
53411;SDS011;39307;52.870;13.660;2023-03-01T04:51:10;10.15;;;5.53;;
53411;SDS011;39307;52.870;13.660;2023-03-01T04:53:37;9.57;;;5.40;;
53411;SDS011;39307;52.870;13.660;2023-03-01T04:56:03;8.82;;;5.25;;
53411;SDS011;39307;52.870;13.660;2023-03-01T04:58:29;10.20;;;5.53;;
53411;SDS011;39307;52.870;13.660;2023-03-01T05:00:55;8.52;;;4.97;;
53411;SDS011;39307;52.870;13.660;2023-03-01T05:03:22;9.18;;;5.03;;
53411;SDS011;39307;52.870;13.660;2023-03-01T05:05:49;8.70;;;5.10;;
53411;SDS011;39307;52.870;13.660;2023-03-01T05:08:16;9.02;;;5.47;;
53411;SDS011;39307;52.870;13.660;2023-03-01T05:10:48;11.25;;;5.75;;
53411;SDS011;39307;52.870;13.660;2023-03-01T05:13:19;8.93;;;5.38;;
53411;SDS011;39307;52.870;13.660;2023-03-01T05:15:47;9.25;;;5.72;;
53411;SDS011;39307;52.870;13.660;2023-03-01T05:18:20;11.47;;;7.60;;
53411;SDS011;39307;52.870;13.660;2023-03-01T05:20:46;21.67;;;15.20;;
53411;SDS011;39307;52.870;13.660;2023-03-01T05:23:12;12.80;;;9.00;;
53411;SDS011;39307;52.870;13.660;2023-03-01T05:25:38;11.50;;;6.85;;
53411;SDS011;39307;52.870;13.660;2023-03-01T05:28:05;9.80;;;5.57;;
53411;SDS011;39307;52.870;13.660;2023-03-01T05:30:33;9.68;;;5.60;;
53411;SDS011;39307;52.870;13.660;2023-03-01T05:33:00;11.20;;;7.20;;
53411;SDS011;39307;52.870;13.660;2023-03-01T05:35:27;10.85;;;6.88;;
53411;SDS011;39307;52.870;13.660;2023-03-01T05:37:53;10.20;;;5.63;;
53411;SDS011;39307;52.870;13.660;2023-03-01T05:40:21;9.23;;;5.32;;
53411;SDS011;39307;52.870;13.660;2023-03-01T05:42:49;10.57;;;5.75;;
53411;SDS011;39307;52.870;13.660;2023-03-01T05:45:18;10.18;;;5.93;;
53411;SDS011;39307;52.870;13.660;2023-03-01T05:47:45;9.88;;;5.80;;
53411;SDS011;39307;52.870;13.660;2023-03-01T05:50:16;9.02;;;5.30;;
53411;SDS011;39307;52.870;13.660;2023-03-01T05:52:45;10.88;;;6.00;;
53411;SDS011;39307;52.870;13.660;2023-03-01T05:55:12;9.43;;;5.65;;
53411;SDS011;39307;52.870;13.660;2023-03-01T05:57:39;9.23;;;5.78;;
53411;SDS011;39307;52.870;13.660;2023-03-01T06:00:05;11.48;;;6.00;;
53411;SDS011;39307;52.870;13.660;2023-03-01T06:02:35;9.90;;;5.50;;
53411;SDS011;39307;52.870;13.660;2023-03-01T06:05:01;9.48;;;5.90;;
53411;SDS011;39307;52.870;13.660;2023-03-01T06:07:28;9.60;;;5.97;;
53411;SDS011;39307;52.870;13.660;2023-03-01T06:09:54;10.20;;;5.68;;
53411;SDS011;39307;52.870;13.660;2023-03-01T06:12:20;11.85;;;6.30;;
53411;SDS011;39307;52.870;13.660;2023-03-01T06:14:46;10.98;;;6.55;;
53411;SDS011;39307;52.870;13.660;2023-03-01T06:17:12;11.77;;;6.30;;
53411;SDS011;39307;52.870;13.660;2023-03-01T06:19:39;10.40;;;6.25;;
53411;SDS011;39307;52.870;13.660;2023-03-01T06:22:05;9.82;;;5.95;;
53411;SDS011;39307;52.870;13.660;2023-03-01T06:24:31;9.43;;;5.63;;
53411;SDS011;39307;52.870;13.660;2023-03-01T06:26:57;10.30;;;5.80;;
53411;SDS011;39307;52.870;13.660;2023-03-01T06:29:23;10.07;;;6.18;;
53411;SDS011;39307;52.870;13.660;2023-03-01T06:31:50;9.35;;;5.60;;
53411;SDS011;39307;52.870;13.660;2023-03-01T06:34:16;9.98;;;5.70;;
53411;SDS011;39307;52.870;13.660;2023-03-01T06:36:42;9.45;;;5.55;;
53411;SDS011;39307;52.870;13.660;2023-03-01T06:39:08;11.63;;;6.10;;
53411;SDS011;39307;52.870;13.660;2023-03-01T06:41:34;9.97;;;6.17;;
53411;SDS011;39307;52.870;13.660;2023-03-01T06:44:00;10.60;;;6.43;;
53411;SDS011;39307;52.870;13.660;2023-03-01T06:46:27;12.15;;;8.20;;
53411;SDS011;39307;52.870;13.660;2023-03-01T06:48:53;12.85;;;8.75;;
53411;SDS011;39307;52.870;13.660;2023-03-01T06:51:19;12.88;;;8.13;;
53411;SDS011;39307;52.870;13.660;2023-03-01T06:53:45;12.95;;;8.15;;
53411;SDS011;39307;52.870;13.660;2023-03-01T06:56:12;12.45;;;8.10;;
53411;SDS011;39307;52.870;13.660;2023-03-01T06:58:38;12.10;;;8.32;;
53411;SDS011;39307;52.870;13.660;2023-03-01T07:01:07;13.43;;;9.37;;
53411;SDS011;39307;52.870;13.660;2023-03-01T07:03:34;15.35;;;9.38;;
53411;SDS011;39307;52.870;13.660;2023-03-01T07:06:00;13.43;;;9.25;;
53411;SDS011;39307;52.870;13.660;2023-03-01T07:08:26;12.60;;;8.93;;
53411;SDS011;39307;52.870;13.660;2023-03-01T07:10:56;12.70;;;9.35;;
53411;SDS011;39307;52.870;13.660;2023-03-01T07:13:25;13.52;;;9.07;;
53411;SDS011;39307;52.870;13.660;2023-03-01T07:15:51;15.57;;;10.88;;
53411;SDS011;39307;52.870;13.660;2023-03-01T07:18:18;16.77;;;10.88;;
53411;SDS011;39307;52.870;13.660;2023-03-01T07:20:44;15.38;;;11.07;;
53411;SDS011;39307;52.870;13.660;2023-03-01T07:23:10;15.60;;;10.33;;
53411;SDS011;39307;52.870;13.660;2023-03-01T07:25:37;16.20;;;10.55;;
53411;SDS011;39307;52.870;13.660;2023-03-01T07:28:03;15.35;;;9.32;;
53411;SDS011;39307;52.870;13.660;2023-03-01T07:30:29;12.85;;;8.63;;
53411;SDS011;39307;52.870;13.660;2023-03-01T07:32:56;13.85;;;8.38;;
53411;SDS011;39307;52.870;13.660;2023-03-01T07:35:24;13.73;;;8.10;;
53411;SDS011;39307;52.870;13.660;2023-03-01T07:37:52;13.68;;;8.27;;
53411;SDS011;39307;52.870;13.660;2023-03-01T07:40:18;13.82;;;8.13;;
53411;SDS011;39307;52.870;13.660;2023-03-01T07:42:45;12.70;;;8.15;;
53411;SDS011;39307;52.870;13.660;2023-03-01T07:45:11;14.40;;;8.73;;
53411;SDS011;39307;52.870;13.660;2023-03-01T07:47:37;13.15;;;8.43;;
53411;SDS011;39307;52.870;13.660;2023-03-01T07:50:03;12.98;;;8.98;;
53411;SDS011;39307;52.870;13.660;2023-03-01T07:52:30;15.85;;;9.48;;
53411;SDS011;39307;52.870;13.660;2023-03-01T07:54:56;13.15;;;8.50;;
53411;SDS011;39307;52.870;13.660;2023-03-01T07:57:23;13.20;;;8.57;;
53411;SDS011;39307;52.870;13.660;2023-03-01T07:59:49;13.27;;;9.20;;
53411;SDS011;39307;52.870;13.660;2023-03-01T08:02:15;14.18;;;10.00;;
53411;SDS011;39307;52.870;13.660;2023-03-01T08:04:41;15.73;;;10.60;;
53411;SDS011;39307;52.870;13.660;2023-03-01T08:07:08;13.98;;;9.80;;
53411;SDS011;39307;52.870;13.660;2023-03-01T08:09:34;13.73;;;9.60;;
53411;SDS011;39307;52.870;13.660;2023-03-01T08:12:01;18.10;;;11.57;;
53411;SDS011;39307;52.870;13.660;2023-03-01T08:14:27;16.77;;;10.80;;
53411;SDS011;39307;52.870;13.660;2023-03-01T08:16:53;15.68;;;10.45;;
53411;SDS011;39307;52.870;13.660;2023-03-01T08:19:19;17.27;;;10.60;;
53411;SDS011;39307;52.870;13.660;2023-03-01T08:21:45;17.30;;;11.88;;
53411;SDS011;39307;52.870;13.660;2023-03-01T08:24:12;17.23;;;12.20;;
53411;SDS011;39307;52.870;13.660;2023-03-01T08:26:38;17.42;;;11.57;;
53411;SDS011;39307;52.870;13.660;2023-03-01T08:29:04;15.23;;;10.40;;
53411;SDS011;39307;52.870;13.660;2023-03-01T08:34:02;12.45;;;8.65;;
53411;SDS011;39307;52.870;13.660;2023-03-01T08:36:33;14.60;;;9.57;;
53411;SDS011;39307;52.870;13.660;2023-03-01T08:39:03;13.18;;;8.68;;
53411;SDS011;39307;52.870;13.660;2023-03-01T08:41:30;13.55;;;8.10;;
53411;SDS011;39307;52.870;13.660;2023-03-01T08:43:56;12.27;;;8.00;;
53411;SDS011;39307;52.870;13.660;2023-03-01T08:46:22;11.10;;;7.43;;
53411;SDS011;39307;52.870;13.660;2023-03-01T08:48:49;10.15;;;6.97;;
53411;SDS011;39307;52.870;13.660;2023-03-01T08:51:18;9.80;;;6.47;;
53411;SDS011;39307;52.870;13.660;2023-03-01T08:53:49;10.17;;;6.17;;
53411;SDS011;39307;52.870;13.660;2023-03-01T08:56:15;9.10;;;5.63;;
53411;SDS011;39307;52.870;13.660;2023-03-01T08:58:45;10.85;;;6.10;;
53411;SDS011;39307;52.870;13.660;2023-03-01T09:01:14;10.25;;;5.47;;
53411;SDS011;39307;52.870;13.660;2023-03-01T09:03:41;10.38;;;5.63;;
53411;SDS011;39307;52.870;13.660;2023-03-01T09:06:08;9.80;;;5.90;;
53411;SDS011;39307;52.870;13.660;2023-03-01T09:08:38;10.27;;;5.40;;
53411;SDS011;39307;52.870;13.660;2023-03-01T09:11:06;9.15;;;5.30;;
53411;SDS011;39307;52.870;13.660;2023-03-01T09:13:33;8.77;;;5.50;;
53411;SDS011;39307;52.870;13.660;2023-03-01T09:16:03;8.63;;;4.43;;
53411;SDS011;39307;52.870;13.660;2023-03-01T09:18:31;15.32;;;7.43;;
53411;SDS011;39307;52.870;13.660;2023-03-01T09:21:03;16.67;;;8.50;;
53411;SDS011;39307;52.870;13.660;2023-03-01T09:23:35;11.25;;;6.53;;
53411;SDS011;39307;52.870;13.660;2023-03-01T09:26:03;13.10;;;7.53;;
53411;SDS011;39307;52.870;13.660;2023-03-01T09:28:30;18.40;;;10.50;;
53411;SDS011;39307;52.870;13.660;2023-03-01T09:31:00;10.73;;;5.40;;
53411;SDS011;39307;52.870;13.660;2023-03-01T09:33:27;9.77;;;4.53;;
53411;SDS011;39307;52.870;13.660;2023-03-01T09:36:02;9.15;;;4.60;;
53411;SDS011;39307;52.870;13.660;2023-03-01T09:38:30;9.10;;;3.72;;
53411;SDS011;39307;52.870;13.660;2023-03-01T09:40:57;7.20;;;3.28;;
53411;SDS011;39307;52.870;13.660;2023-03-01T09:43:25;6.00;;;2.70;;
53411;SDS011;39307;52.870;13.660;2023-03-01T09:46:03;6.10;;;2.97;;
53411;SDS011;39307;52.870;13.660;2023-03-01T09:48:43;7.18;;;3.10;;
53411;SDS011;39307;52.870;13.660;2023-03-01T09:51:12;8.07;;;3.33;;
53411;SDS011;39307;52.870;13.660;2023-03-01T09:53:52;5.93;;;2.90;;
53411;SDS011;39307;52.870;13.660;2023-03-01T09:56:53;6.85;;;3.03;;
53411;SDS011;39307;52.870;13.660;2023-03-01T09:59:28;7.82;;;3.28;;
53411;SDS011;39307;52.870;13.660;2023-03-01T10:02:26;5.88;;;2.78;;
53411;SDS011;39307;52.870;13.660;2023-03-01T10:05:19;6.47;;;3.25;;
53411;SDS011;39307;52.870;13.660;2023-03-01T10:08:29;5.82;;;2.80;;
53411;SDS011;39307;52.870;13.660;2023-03-01T10:11:21;7.05;;;3.28;;
53411;SDS011;39307;52.870;13.660;2023-03-01T10:14:05;8.07;;;3.70;;
53411;SDS011;39307;52.870;13.660;2023-03-01T10:17:00;7.57;;;3.83;;
53411;SDS011;39307;52.870;13.660;2023-03-01T10:19:46;7.45;;;4.03;;
53411;SDS011;39307;52.870;13.660;2023-03-01T10:22:19;9.37;;;4.30;;
53411;SDS011;39307;52.870;13.660;2023-03-01T10:24:54;8.80;;;4.65;;
53411;SDS011;39307;52.870;13.660;2023-03-01T10:27:24;7.97;;;4.53;;
53411;SDS011;39307;52.870;13.660;2023-03-01T10:30:29;8.60;;;5.40;;
53411;SDS011;39307;52.870;13.660;2023-03-01T10:32:58;9.43;;;5.57;;
53411;SDS011;39307;52.870;13.660;2023-03-01T10:35:26;9.60;;;5.27;;
53411;SDS011;39307;52.870;13.660;2023-03-01T10:38:12;10.43;;;5.63;;
53411;SDS011;39307;52.870;13.660;2023-03-01T10:43:23;9.05;;;5.63;;
53411;SDS011;39307;52.870;13.660;2023-03-01T10:45:51;10.05;;;6.03;;
53411;SDS011;39307;52.870;13.660;2023-03-01T10:48:23;8.32;;;5.45;;
53411;SDS011;39307;52.870;13.660;2023-03-01T10:51:04;10.88;;;6.22;;
53411;SDS011;39307;52.870;13.660;2023-03-01T10:53:42;10.77;;;6.05;;
53411;SDS011;39307;52.870;13.660;2023-03-01T10:56:14;8.88;;;5.78;;
53411;SDS011;39307;52.870;13.660;2023-03-01T10:59:00;8.77;;;5.63;;
53411;SDS011;39307;52.870;13.660;2023-03-01T11:01:30;10.65;;;6.00;;
53411;SDS011;39307;52.870;13.660;2023-03-01T11:06:38;10.20;;;5.60;;
53411;SDS011;39307;52.870;13.660;2023-03-01T11:09:17;8.88;;;5.85;;
53411;SDS011;39307;52.870;13.660;2023-03-01T11:11:46;9.13;;;5.53;;
53411;SDS011;39307;52.870;13.660;2023-03-01T11:14:23;9.23;;;5.97;;
53411;SDS011;39307;52.870;13.660;2023-03-01T11:17:02;9.05;;;5.13;;
53411;SDS011;39307;52.870;13.660;2023-03-01T11:19:30;12.37;;;7.13;;
53411;SDS011;39307;52.870;13.660;2023-03-01T11:22:02;10.57;;;6.22;;
53411;SDS011;39307;52.870;13.660;2023-03-01T11:24:34;11.10;;;5.60;;
53411;SDS011;39307;52.870;13.660;2023-03-01T11:27:26;10.20;;;5.80;;
53411;SDS011;39307;52.870;13.660;2023-03-01T11:32:41;10.35;;;5.05;;
53411;SDS011;39307;52.870;13.660;2023-03-01T11:35:29;8.57;;;4.60;;
53411;SDS011;39307;52.870;13.660;2023-03-01T11:38:01;7.95;;;4.43;;
53411;SDS011;39307;52.870;13.660;2023-03-01T11:41:06;8.25;;;4.32;;
53411;SDS011;39307;52.870;13.660;2023-03-01T11:43:37;7.03;;;4.45;;
53411;SDS011;39307;52.870;13.660;2023-03-01T11:46:27;6.70;;;4.20;;
53411;SDS011;39307;52.870;13.660;2023-03-01T12:06:33;5.93;;;3.28;;
53411;SDS011;39307;52.870;13.660;2023-03-01T12:22:50;6.18;;;3.20;;
53411;SDS011;39307;52.870;13.660;2023-03-01T12:25:36;6.00;;;3.20;;
53411;SDS011;39307;52.870;13.660;2023-03-01T12:39:02;6.90;;;3.08;;
53411;SDS011;39307;52.870;13.660;2023-03-01T12:41:50;7.30;;;3.45;;
53411;SDS011;39307;52.870;13.660;2023-03-01T12:50:17;7.45;;;3.35;;
53411;SDS011;39307;52.870;13.660;2023-03-01T12:52:53;6.07;;;2.88;;
53411;SDS011;39307;52.870;13.660;2023-03-01T12:55:29;6.38;;;3.22;;
53411;SDS011;39307;52.870;13.660;2023-03-01T13:00:36;6.00;;;2.90;;
53411;SDS011;39307;52.870;13.660;2023-03-01T13:08:47;5.95;;;3.22;;
53411;SDS011;39307;52.870;13.660;2023-03-01T13:11:32;5.78;;;2.70;;
53411;SDS011;39307;52.870;13.660;2023-03-01T13:16:45;7.28;;;3.50;;
53411;SDS011;39307;52.870;13.660;2023-03-01T13:19:13;6.80;;;3.10;;
53411;SDS011;39307;52.870;13.660;2023-03-01T13:21:47;7.47;;;3.17;;
53411;SDS011;39307;52.870;13.660;2023-03-01T13:24:25;7.60;;;2.97;;
53411;SDS011;39307;52.870;13.660;2023-03-01T13:29:53;5.38;;;2.88;;
53411;SDS011;39307;52.870;13.660;2023-03-01T13:32:25;6.25;;;2.80;;
53411;SDS011;39307;52.870;13.660;2023-03-01T13:34:56;7.77;;;4.03;;
53411;SDS011;39307;52.870;13.660;2023-03-01T13:37:27;9.80;;;5.47;;
53411;SDS011;39307;52.870;13.660;2023-03-01T13:39:55;14.65;;;8.18;;
53411;SDS011;39307;52.870;13.660;2023-03-01T13:42:34;10.50;;;5.28;;
53411;SDS011;39307;52.870;13.660;2023-03-01T13:45:02;10.02;;;5.05;;
53411;SDS011;39307;52.870;13.660;2023-03-01T13:47:29;8.05;;;4.07;;
53411;SDS011;39307;52.870;13.660;2023-03-01T13:50:02;16.45;;;9.73;;
53411;SDS011;39307;52.870;13.660;2023-03-01T13:57:50;8.43;;;4.20;;
53411;SDS011;39307;52.870;13.660;2023-03-01T14:00:26;5.97;;;3.03;;
53411;SDS011;39307;52.870;13.660;2023-03-01T14:03:08;6.30;;;3.20;;
53411;SDS011;39307;52.870;13.660;2023-03-01T14:06:06;4.75;;;2.60;;
53411;SDS011;39307;52.870;13.660;2023-03-01T14:08:33;6.78;;;3.38;;
53411;SDS011;39307;52.870;13.660;2023-03-01T14:11:13;5.73;;;2.73;;
53411;SDS011;39307;52.870;13.660;2023-03-01T14:19:25;5.22;;;2.58;;
53411;SDS011;39307;52.870;13.660;2023-03-01T14:22:02;6.97;;;2.97;;
53411;SDS011;39307;52.870;13.660;2023-03-01T14:24:44;5.47;;;2.70;;
53411;SDS011;39307;52.870;13.660;2023-03-01T14:27:28;4.85;;;2.38;;
53411;SDS011;39307;52.870;13.660;2023-03-01T14:30:04;5.80;;;2.60;;
53411;SDS011;39307;52.870;13.660;2023-03-01T14:32:40;6.68;;;2.72;;
53411;SDS011;39307;52.870;13.660;2023-03-01T14:38:03;6.75;;;2.90;;
53411;SDS011;39307;52.870;13.660;2023-03-01T14:40:30;7.57;;;3.80;;
53411;SDS011;39307;52.870;13.660;2023-03-01T14:43:00;4.60;;;2.10;;
53411;SDS011;39307;52.870;13.660;2023-03-01T14:45:34;2.97;;;1.40;;
53411;SDS011;39307;52.870;13.660;2023-03-01T14:48:02;3.13;;;1.50;;
53411;SDS011;39307;52.870;13.660;2023-03-01T14:50:32;3.30;;;1.30;;
53411;SDS011;39307;52.870;13.660;2023-03-01T14:53:07;2.73;;;1.10;;
53411;SDS011;39307;52.870;13.660;2023-03-01T14:55:53;3.08;;;1.23;;
53411;SDS011;39307;52.870;13.660;2023-03-01T14:58:22;4.60;;;1.30;;
53411;SDS011;39307;52.870;13.660;2023-03-01T15:00:56;3.30;;;1.27;;
53411;SDS011;39307;52.870;13.660;2023-03-01T15:03:26;2.17;;;1.00;;
53411;SDS011;39307;52.870;13.660;2023-03-01T15:05:59;3.30;;;1.30;;
53411;SDS011;39307;52.870;13.660;2023-03-01T15:08:26;2.92;;;1.20;;
53411;SDS011;39307;52.870;13.660;2023-03-01T15:11:02;4.25;;;1.10;;
53411;SDS011;39307;52.870;13.660;2023-03-01T15:13:39;2.67;;;1.42;;
53411;SDS011;39307;52.870;13.660;2023-03-01T15:16:06;2.90;;;1.10;;
53411;SDS011;39307;52.870;13.660;2023-03-01T15:18:35;5.17;;;1.40;;
53411;SDS011;39307;52.870;13.660;2023-03-01T15:21:09;4.10;;;1.30;;
53411;SDS011;39307;52.870;13.660;2023-03-01T15:23:41;2.88;;;0.90;;
53411;SDS011;39307;52.870;13.660;2023-03-01T15:26:23;3.08;;;0.90;;
53411;SDS011;39307;52.870;13.660;2023-03-01T15:28:59;3.45;;;1.02;;
53411;SDS011;39307;52.870;13.660;2023-03-01T15:31:29;1.77;;;0.90;;
53411;SDS011;39307;52.870;13.660;2023-03-01T15:34:09;2.30;;;0.90;;
53411;SDS011;39307;52.870;13.660;2023-03-01T15:36:46;2.42;;;0.88;;
53411;SDS011;39307;52.870;13.660;2023-03-01T15:42:01;2.38;;;0.90;;
53411;SDS011;39307;52.870;13.660;2023-03-01T15:44:29;2.70;;;1.00;;
53411;SDS011;39307;52.870;13.660;2023-03-01T15:46:57;1.90;;;0.85;;
53411;SDS011;39307;52.870;13.660;2023-03-01T15:52:01;2.65;;;0.90;;
53411;SDS011;39307;52.870;13.660;2023-03-01T15:54:28;2.17;;;0.90;;
53411;SDS011;39307;52.870;13.660;2023-03-01T15:56:55;2.25;;;0.98;;
53411;SDS011;39307;52.870;13.660;2023-03-01T15:59:21;2.50;;;1.00;;
53411;SDS011;39307;52.870;13.660;2023-03-01T16:01:48;3.37;;;0.90;;
53411;SDS011;39307;52.870;13.660;2023-03-01T16:04:16;2.65;;;1.05;;
53411;SDS011;39307;52.870;13.660;2023-03-01T16:06:43;2.85;;;0.95;;
53411;SDS011;39307;52.870;13.660;2023-03-01T16:09:09;2.58;;;0.95;;
53411;SDS011;39307;52.870;13.660;2023-03-01T16:11:36;2.85;;;0.70;;
53411;SDS011;39307;52.870;13.660;2023-03-01T16:14:02;2.20;;;1.20;;
53411;SDS011;39307;52.870;13.660;2023-03-01T16:16:28;2.30;;;0.90;;
53411;SDS011;39307;52.870;13.660;2023-03-01T16:18:55;2.33;;;0.80;;
53411;SDS011;39307;52.870;13.660;2023-03-01T16:21:24;1.90;;;0.90;;
53411;SDS011;39307;52.870;13.660;2023-03-01T16:23:51;1.55;;;0.70;;
53411;SDS011;39307;52.870;13.660;2023-03-01T16:26:17;1.47;;;0.67;;